Time;durP1;ratioP1;P1;durP2;ratioP2;P2;SDS_P1;SDS_P2;PMS_P1;PMS_P2;Temp;Humidity;BMP_temperature;BMP_pressure;BME280_temperature;BME280_humidity;BME280_pressure;Samples;Min_cycle;Max_cycle;Signal;HPM_P1;HPM_P2
2023/04/17 00:01:35;;;;;;;0.20;0.20;;;;;;;10.72;98.73;99210.84;4998157;28;20096;-70
2023/04/17 00:04:01;;;;;;;0.20;0.20;;;;;;;10.68;97.49;99201.66;4997369;28;20026;-69
2023/04/17 00:06:32;;;;;;;0.20;0.20;;;;;;;10.70;96.88;99204.84;4997335;28;20084;-70
2023/04/17 00:08:58;;;;;;;0.20;0.20;;;;;;;10.66;97.01;99192.91;4996651;28;20547;-70
2023/04/17 00:11:26;;;;;;;0.20;0.20;;;;;;;10.82;96.47;99212.88;4997387;28;20062;-70
2023/04/17 00:13:52;;;;;;;0.20;0.20;;;;;;;10.82;96.88;99212.88;4997480;28;20026;-69
2023/04/17 00:16:19;;;;;;;0.20;0.20;;;;;;;10.82;96.60;99212.88;4997138;28;20392;-70
2023/04/17 00:18:48;;;;;;;0.20;0.20;;;;;;;10.78;97.15;99212.06;4997108;28;20125;-70
2023/04/17 00:21:13;;;;;;;0.20;0.20;;;;;;;10.71;98.02;99212.81;4997992;28;20084;-69
2023/04/17 00:23:41;;;;;;;0.30;0.30;;;;;;;10.75;97.55;99204.47;4997016;28;20476;-69
2023/04/17 00:26:07;;;;;;;0.20;0.20;;;;;;;10.75;98.66;99210.84;4997554;28;20037;-70
2023/04/17 00:28:35;;;;;;;0.25;0.25;;;;;;;10.67;99.29;99206.44;4993688;28;20046;-69
2023/04/17 00:31:06;;;;;;;0.30;0.30;;;;;;;10.72;99.90;99208.06;4993964;28;20054;-70
2023/04/17 00:33:31;;;;;;;0.20;0.20;;;;;;;10.69;98.80;99201.25;4993787;28;20026;-70
2023/04/17 00:35:59;;;;;;;0.20;0.20;;;;;;;10.74;99.54;99206.47;4994141;28;20436;-70
2023/04/17 00:38:25;;;;;;;0.20;0.20;;;;;;;10.70;99.36;99210.41;4993753;28;20468;-70
2023/04/17 00:40:53;;;;;;;0.20;0.20;;;;;;;10.67;98.83;99219.53;4993485;28;20033;-69
2023/04/17 00:43:23;;;;;;;0.20;0.20;;;;;;;10.61;100.00;99219.09;4993744;28;20112;-70
2023/04/17 00:45:52;;;;;;;0.20;0.20;;;;;;;10.60;100.00;99217.50;4993701;28;20033;-70
2023/04/17 00:48:23;;;;;;;0.20;0.20;;;;;;;10.48;100.00;99210.25;4994974;28;20034;-70
2023/04/17 00:50:50;;;;;;;0.20;0.20;;;;;;;10.49;100.00;99208.25;4994157;28;20435;-70
2023/04/17 00:53:16;;;;;;;0.30;0.30;;;;;;;10.41;100.00;99209.41;4993238;28;20031;-69
2023/04/17 00:55:47;;;;;;;0.20;0.20;;;;;;;10.47;100.00;99214.22;4993293;28;20473;-70
2023/04/17 00:58:14;;;;;;;0.20;0.20;;;;;;;10.43;100.00;99209.81;4994516;28;20030;-70
2023/04/17 01:00:42;;;;;;;0.20;0.20;;;;;;;10.48;100.00;99207.47;4993200;28;20023;-70
2023/04/17 01:03:09;;;;;;;0.20;0.20;;;;;;;10.50;100.00;99218.22;4993314;28;20034;-70
2023/04/17 01:05:37;;;;;;;0.20;0.20;;;;;;;10.46;100.00;99212.63;4993479;28;20129;-70
2023/04/17 01:08:03;;;;;;;0.20;0.20;;;;;;;10.46;100.00;99218.19;4993490;28;20060;-70
2023/04/17 01:10:29;;;;;;;0.20;0.20;;;;;;;10.42;100.00;99213.78;4993088;28;20541;-69
2023/04/17 01:13:07;;;;;;;0.20;0.20;;;;;;;10.42;100.00;99216.56;4993582;28;20037;-70
2023/04/17 01:15:34;;;;;;;0.20;0.20;;;;;;;10.39;100.00;99229.28;4993635;28;20034;-70
2023/04/17 01:18:00;;;;;;;0.20;0.20;;;;;;;10.33;100.00;99225.22;4994622;28;20061;-70
2023/04/17 01:20:29;;;;;;;0.20;0.20;;;;;;;10.24;100.00;99219.22;4996608;28;20038;-70
2023/04/17 01:22:58;;;;;;;0.20;0.20;;;;;;;10.13;100.00;99221.06;4997126;28;20030;-70
2023/04/17 01:25:25;;;;;;;0.22;0.22;;;;;;;10.08;100.00;99213.06;4998647;28;20026;-70
2023/04/17 01:27:55;;;;;;;0.20;0.20;;;;;;;10.07;100.00;99228.94;4998688;28;20089;-71
2023/04/17 01:30:24;;;;;;;0.20;0.20;;;;;;;10.05;100.00;99224.94;4997220;28;20062;-70
2023/04/17 01:32:49;;;;;;;0.20;0.20;;;;;;;10.02;100.00;99220.16;4997196;28;20377;-70
2023/04/17 01:35:15;;;;;;;0.20;0.20;;;;;;;10.05;100.00;99214.63;4997731;28;20038;-70
2023/04/17 01:37:45;;;;;;;0.20;0.20;;;;;;;10.02;100.00;99225.72;4997827;28;20018;-70
2023/04/17 01:40:15;;;;;;;0.22;0.22;;;;;;;9.98;100.00;99220.91;4997544;28;20038;-70
2023/04/17 01:42:41;;;;;;;0.20;0.20;;;;;;;10.00;100.00;99222.50;4997064;28;20027;-70
2023/04/17 01:45:07;;;;;;;0.20;0.20;;;;;;;9.99;100.00;99216.16;4996722;28;20469;-70
2023/04/17 01:47:40;;;;;;;0.30;0.30;;;;;;;9.98;100.00;99215.34;4996644;28;20036;-70
2023/04/17 01:50:09;;;;;;;0.20;0.20;;;;;;;9.90;100.00;99208.13;4996601;28;20034;-70
2023/04/17 01:52:40;;;;;;;0.20;0.20;;;;;;;9.86;100.00;99203.75;4996397;28;20026;-70
2023/04/17 01:55:08;;;;;;;0.20;0.20;;;;;;;9.96;100.00;99206.63;4996551;28;20041;-70
2023/04/17 01:57:36;;;;;;;0.20;0.20;;;;;;;9.90;100.00;99207.31;4996715;28;20384;-70
2023/04/17 02:00:08;;;;;;;0.20;0.20;;;;;;;9.92;99.63;99214.13;4996700;28;20049;-70
2023/04/17 02:02:33;;;;;;;0.22;0.22;;;;;;;9.97;98.25;99224.88;4996689;28;20030;-70
2023/04/17 02:04:59;;;;;;;0.20;0.20;;;;;;;9.93;97.92;99224.03;4996959;28;20057;-70
2023/04/17 02:07:24;;;;;;;0.20;0.20;;;;;;;10.05;96.31;99222.97;4996315;28;20034;-69
2023/04/17 02:09:52;;;;;;;0.30;0.30;;;;;;;10.10;95.17;99221.81;4996250;28;20034;-69
2023/04/17 02:12:18;;;;;;;0.20;0.20;;;;;;;10.18;94.78;99224.28;4996398;28;20458;-69
2023/04/17 02:14:43;;;;;;;0.20;0.20;;;;;;;10.14;93.68;99225.44;4996169;28;20037;-69
2023/04/17 02:17:09;;;;;;;0.20;0.20;;;;;;;10.16;93.80;99211.94;4996721;28;20026;-70
2023/04/17 02:19:34;;;;;;;0.25;0.25;;;;;;;10.24;93.83;99219.22;4997371;28;20035;-71
2023/04/17 02:22:00;;;;;;;0.20;0.20;;;;;;;10.22;92.84;99221.53;4996389;28;20041;-69
2023/04/17 02:24:28;;;;;;;0.20;0.20;;;;;;;10.23;92.69;99225.91;4996550;28;20085;-72
2023/04/17 02:26:56;;;;;;;0.20;0.20;;;;;;;10.17;93.96;99210.75;4995945;28;20030;-70
2023/04/17 02:29:24;;;;;;;0.20;0.20;;;;;;;10.19;94.03;99216.75;5007783;28;20076;-69
2023/04/17 02:31:53;;;;;;;0.20;0.20;;;;;;;10.16;94.15;99214.72;4998216;28;20469;-69
2023/04/17 02:34:21;;;;;;;0.20;0.20;;;;;;;10.15;94.22;99207.56;4999337;28;20030;-69
2023/04/17 02:36:51;;;;;;;0.20;0.20;;;;;;;10.15;94.18;99208.38;5016331;28;20026;-69
2023/04/17 02:39:16;;;;;;;0.20;0.20;;;;;;;10.10;95.12;99208.72;4998924;28;20125;-69
2023/04/17 02:41:45;;;;;;;0.20;0.20;;;;;;;10.05;95.05;99208.28;4999767;28;20185;-69
2023/04/17 02:44:12;;;;;;;0.30;0.30;;;;;;;10.04;95.43;99201.13;4998634;28;20045;-69
2023/04/17 02:46:41;;;;;;;0.20;0.20;;;;;;;10.06;94.71;99204.31;5016709;28;20468;-69
2023/04/17 02:49:09;;;;;;;0.20;0.20;;;;;;;10.06;93.62;99210.66;4999064;28;20056;-70
2023/04/17 02:51:34;;;;;;;0.20;0.20;;;;;;;10.10;93.76;99210.69;4998978;28;20029;-69
2023/04/17 02:54:00;;;;;;;0.20;0.20;;;;;;;10.14;94.10;99214.31;4998660;28;20038;-69
2023/04/17 02:56:25;;;;;;;0.20;0.20;;;;;;;10.11;92.74;99217.84;4998659;28;20037;-69
2023/04/17 02:58:53;;;;;;;0.20;0.20;;;;;;;10.07;93.96;99205.91;4999186;28;20034;-69
2023/04/17 03:01:21;;;;;;;0.30;0.30;;;;;;;10.23;90.25;99212.03;4998872;28;20022;-69
2023/04/17 03:03:51;;;;;;;0.20;0.20;;;;;;;10.19;89.21;99198.09;5015849;28;20044;-69
2023/04/17 03:06:21;;;;;;;0.20;0.20;;;;;;;10.44;86.37;99203.88;4998820;28;20037;-69
2023/04/17 03:08:46;;;;;;;0.20;0.20;;;;;;;10.37;87.41;99203.81;4998983;28;20030;-69
2023/04/17 03:11:14;;;;;;;0.20;0.20;;;;;;;10.38;87.61;99204.59;4998702;28;20479;-69
2023/04/17 03:13:40;;;;;;;0.20;0.20;;;;;;;10.48;86.38;99203.88;4998517;28;20453;-69
2023/04/17 03:16:06;;;;;;;0.20;0.20;;;;;;;10.45;87.06;99211.03;4998312;28;20103;-69
2023/04/17 03:18:38;;;;;;;0.20;0.20;;;;;;;10.48;87.06;99199.13;4998801;28;20029;-69
2023/04/17 03:21:03;;;;;;;0.20;0.20;;;;;;;10.47;87.52;99211.44;4998201;28;20030;-69
2023/04/17 03:23:31;;;;;;;0.30;0.30;;;;;;;10.54;85.96;99201.53;4998170;28;20045;-70
2023/04/17 03:25:57;;;;;;;0.20;0.20;;;;;;;10.40;85.93;99175.25;4998068;28;20025;-69
2023/04/17 03:28:22;;;;;;;0.20;0.20;;;;;;;10.59;85.79;99204.75;4997942;28;20060;-69
2023/04/17 03:30:53;;;;;;;0.20;0.20;;;;;;;10.58;85.64;99213.50;4998026;28;20077;-70
2023/04/17 03:33:19;;;;;;;0.30;0.30;;;;;;;10.65;85.03;99219.09;4997926;28;20025;-70
2023/04/17 03:35:47;;;;;;;0.28;0.28;;;;;;;10.62;86.22;99225.47;4998698;28;20037;-70
2023/04/17 03:38:15;;;;;;;0.20;0.20;;;;;;;10.55;85.64;99219.84;4997936;28;20049;-70
2023/04/17 03:40:46;;;;;;;0.20;0.20;;;;;;;10.51;87.37;99228.16;4998108;28;20026;-70
2023/04/17 03:43:14;;;;;;;0.20;0.20;;;;;;;10.59;86.40;99227.03;4998431;28;20452;-70
2023/04/17 03:45:45;;;;;;;0.20;0.20;;;;;;;10.69;85.50;99226.28;4997718;28;20080;-69
2023/04/17 03:48:15;;;;;;;0.20;0.20;;;;;;;10.65;87.21;99219.09;4998272;28;20030;-69
2023/04/17 03:50:40;;;;;;;0.20;0.20;;;;;;;10.57;87.96;99225.81;4997946;28;20034;-69
2023/04/17 03:53:09;;;;;;;0.20;0.20;;;;;;;10.63;87.99;99218.72;5015256;28;20034;-70
2023/04/17 03:55:37;;;;;;;0.20;0.20;;;;;;;10.68;86.94;99223.91;5000382;28;20030;-69
2023/04/17 03:58:03;;;;;;;0.20;0.20;;;;;;;10.71;86.64;99217.59;4998997;28;20546;-69
2023/04/17 04:00:33;;;;;;;0.20;0.20;;;;;;;10.70;87.01;99210.41;4997772;28;20026;-69
2023/04/17 04:03:03;;;;;;;0.20;0.20;;;;;;;10.77;86.98;99212.47;4997429;28;20033;-69
2023/04/17 04:05:31;;;;;;;0.20;0.20;;;;;;;10.72;86.67;99208.84;4997623;28;20092;-69
2023/04/17 04:08:02;;;;;;;0.20;0.20;;;;;;;10.75;85.49;99207.25;4997885;28;20116;-69
2023/04/17 04:10:32;;;;;;;0.20;0.20;;;;;;;10.74;85.89;99200.09;4997246;28;20034;-69
2023/04/17 04:12:59;;;;;;;0.30;0.30;;;;;;;10.82;86.02;99218.44;5014789;28;20507;-69
2023/04/17 04:15:26;;;;;;;0.20;0.20;;;;;;;10.76;86.49;99206.09;4997093;28;20030;-69
2023/04/17 04:17:51;;;;;;;0.20;0.20;;;;;;;10.73;86.92;99223.56;4997412;28;20045;-69
2023/04/17 04:20:17;;;;;;;0.30;0.30;;;;;;;10.73;86.86;99227.13;4997368;28;20026;-69
2023/04/17 04:22:43;;;;;;;0.20;0.20;;;;;;;10.68;87.58;99226.69;4997557;28;20080;-69
2023/04/17 04:25:11;;;;;;;0.20;0.20;;;;;;;10.76;87.06;99231.13;4997604;28;20128;-69
2023/04/17 04:27:48;;;;;;;0.20;0.20;;;;;;;10.66;87.55;99237.41;4997019;28;20061;-69
2023/04/17 04:30:18;;;;;;;0.20;0.20;;;;;;;10.71;87.85;99237.06;5014687;28;20046;-69
2023/04/17 04:32:48;;;;;;;0.20;0.20;;;;;;;10.69;88.44;99231.06;4998181;28;20037;-69
2023/04/17 04:35:14;;;;;;;0.20;0.20;;;;;;;10.74;89.02;99233.50;4998142;28;20033;-69
2023/04/17 04:37:41;;;;;;;0.30;0.30;;;;;;;10.69;89.43;99225.50;4996936;28;20026;-69
2023/04/17 04:40:16;;;;;;;0.20;0.20;;;;;;;10.73;89.08;99231.91;5014440;28;20038;-69
2023/04/17 04:42:48;;;;;;;0.20;0.20;;;;;;;10.75;89.09;99223.94;4997268;28;20029;-69
2023/04/17 04:45:17;;;;;;;0.20;0.20;;;;;;;10.71;89.09;99223.16;5014586;28;20117;-69
2023/04/17 04:47:43;;;;;;;0.20;0.20;;;;;;;10.71;89.36;99234.28;4996670;28;20116;-69
2023/04/17 04:50:08;;;;;;;0.20;0.20;;;;;;;10.73;89.79;99231.91;4997018;28;20125;-69
2023/04/17 04:52:36;;;;;;;0.20;0.20;;;;;;;10.77;88.67;99243.84;4996465;28;20025;-69
2023/04/17 04:55:02;;;;;;;0.20;0.20;;;;;;;10.87;89.19;99234.00;4996043;28;20037;-70
2023/04/17 04:57:28;;;;;;;0.20;0.20;;;;;;;10.98;88.99;99232.88;4996463;28;20030;-69
2023/04/17 04:59:53;;;;;;;0.20;0.20;;;;;;;11.08;87.80;99224.94;4997109;28;20041;-69
2023/04/17 05:02:19;;;;;;;0.20;0.20;;;;;;;11.21;87.61;99226.22;4996532;28;20057;-69
2023/04/17 05:04:50;;;;;;;0.20;0.20;;;;;;;11.91;83.55;99233.25;4996762;28;20030;-69
2023/04/17 05:07:18;;;;;;;0.20;0.20;;;;;;;12.69;78.80;99226.94;4996976;28;20103;-69
2023/04/17 05:09:49;;;;;;;0.30;0.30;;;;;;;13.30;75.14;99227.63;5014261;28;20468;-69
2023/04/17 05:12:14;;;;;;;0.20;0.20;;;;;;;12.89;74.28;99229.28;5013640;28;20054;-69
2023/04/17 05:14:42;;;;;;;0.20;0.20;;;;;;;12.35;77.95;99234.91;4996630;28;20072;-69
2023/04/17 05:17:10;;;;;;;0.22;0.22;;;;;;;12.07;79.41;99244.84;4996908;28;20048;-69
2023/04/17 05:19:38;;;;;;;0.20;0.20;;;;;;;11.85;81.45;99234.84;4996358;28;20034;-69
2023/04/17 05:22:04;;;;;;;0.20;0.20;;;;;;;11.71;82.46;99238.34;4997135;28;20026;-69
2023/04/17 05:24:29;;;;;;;0.20;0.20;;;;;;;11.57;83.50;99245.88;4996133;28;20366;-69
2023/04/17 05:26:55;;;;;;;0.20;0.20;;;;;;;11.57;83.82;99238.31;4996349;28;20492;-69
2023/04/17 05:29:23;;;;;;;0.20;0.20;;;;;;;11.47;83.95;99237.09;4992953;28;20051;-70
2023/04/17 05:31:51;;;;;;;0.20;0.20;;;;;;;11.55;84.49;99235.91;4992906;28;20037;-69
2023/04/17 05:34:21;;;;;;;0.20;0.20;;;;;;;11.48;84.75;99243.44;4993920;28;20532;-69
2023/04/17 05:36:50;;;;;;;0.20;0.20;;;;;;;11.50;85.23;99247.44;4993149;28;20031;-69
2023/04/17 05:39:18;;;;;;;0.20;0.20;;;;;;;11.60;85.15;99239.50;4993154;28;20045;-69
2023/04/17 05:41:43;;;;;;;0.20;0.20;;;;;;;11.63;85.04;99238.72;4993636;28;20030;-69
2023/04/17 05:44:13;;;;;;;0.20;0.20;;;;;;;11.68;85.11;99247.50;4992911;28;20030;-69
2023/04/17 05:46:41;;;;;;;0.20;0.20;;;;;;;11.67;84.62;99259.06;4992770;28;20116;-69
2023/04/17 05:49:09;;;;;;;0.20;0.20;;;;;;;11.68;84.48;99258.66;4993073;28;20034;-69
2023/04/17 05:51:37;;;;;;;0.20;0.20;;;;;;;11.81;83.87;99267.44;4992632;28;20034;-69
2023/04/17 05:54:02;;;;;;;0.20;0.20;;;;;;;11.86;83.65;99274.66;4992736;28;20054;-69
2023/04/17 05:56:30;;;;;;;0.20;0.20;;;;;;;11.86;83.65;99261.53;4992988;28;20073;-69
2023/04/17 05:58:58;;;;;;;0.20;0.20;;;;;;;11.91;83.83;99261.13;4994259;28;20377;-70
2023/04/17 06:01:28;;;;;;;0.20;0.20;;;;;;;11.98;83.30;99263.94;4994359;28;20031;-70
2023/04/17 06:03:53;;;;;;;0.20;0.20;;;;;;;12.05;84.04;99269.53;4993705;28;20035;-69
2023/04/17 06:06:21;;;;;;;0.20;0.20;;;;;;;12.11;83.07;99264.38;4994572;28;20389;-70
2023/04/17 06:08:53;;;;;;;0.20;0.20;;;;;;;12.23;82.79;99271.56;4996358;28;20026;-69
2023/04/17 06:11:19;;;;;;;0.20;0.20;;;;;;;12.15;81.42;99244.88;4996331;28;20113;-69
2023/04/17 06:13:44;;;;;;;0.20;0.20;;;;;;;12.35;81.00;99275.94;4996408;28;20457;-69
2023/04/17 06:16:12;;;;;;;0.20;0.20;;;;;;;12.49;80.69;99268.41;4996169;28;20030;-69
2023/04/17 06:18:41;;;;;;;0.20;0.20;;;;;;;12.63;80.43;99283.56;4997333;28;20034;-69
2023/04/17 06:21:07;;;;;;;0.20;0.20;;;;;;;12.71;79.49;99269.19;4996938;28;20164;-69
2023/04/17 06:23:35;;;;;;;0.30;0.30;;;;;;;12.85;78.68;99285.94;4996700;28;20058;-69
2023/04/17 06:26:01;;;;;;;0.20;0.20;;;;;;;12.81;79.09;99279.56;4996709;28;20037;-70
2023/04/17 06:28:29;;;;;;;0.20;0.20;;;;;;;12.92;78.54;99282.34;4999570;28;20136;-68
2023/04/17 06:30:55;;;;;;;0.20;0.20;;;;;;;13.01;78.13;99281.94;4999439;28;20021;-69
2023/04/17 06:33:23;;;;;;;0.30;0.30;;;;;;;12.93;78.72;99283.94;4998985;28;20387;-69
2023/04/17 06:35:48;;;;;;;0.20;0.20;;;;;;;12.93;77.99;99286.72;4999651;28;20440;-69
2023/04/17 06:38:16;;;;;;;0.20;0.20;;;;;;;12.93;77.75;99286.72;4999046;28;20041;-69
2023/04/17 06:40:45;;;;;;;0.30;0.30;;;;;;;12.96;78.31;99297.09;4998407;28;20038;-69
2023/04/17 06:43:11;;;;;;;0.20;0.20;;;;;;;13.03;78.73;99302.66;4999222;28;20443;-69
2023/04/17 06:45:36;;;;;;;0.20;0.20;;;;;;;13.23;77.18;99299.50;4998909;28;20116;-69
2023/04/17 06:48:04;;;;;;;0.30;0.30;;;;;;;13.35;76.63;99307.44;4998888;28;20145;-69
2023/04/17 06:50:30;;;;;;;0.20;0.20;;;;;;;13.45;76.11;99306.63;4998726;28;20036;-69
2023/04/17 06:52:57;;;;;;;0.20;0.20;;;;;;;13.39;75.89;99307.44;4998654;28;20026;-68
2023/04/17 06:55:25;;;;;;;0.20;0.20;;;;;;;13.45;76.30;99305.81;4999173;28;20410;-69
2023/04/17 06:57:56;;;;;;;0.30;0.30;;;;;;;13.46;76.29;99311.00;4999214;28;20033;-68
2023/04/17 07:00:24;;;;;;;0.20;0.20;;;;;;;13.43;76.66;99314.63;4999192;28;20024;-69
2023/04/17 07:02:50;;;;;;;0.20;0.20;;;;;;;13.52;76.33;99314.97;4998858;28;20026;-69
2023/04/17 07:05:18;;;;;;;0.20;0.20;;;;;;;13.65;76.65;99314.56;4998719;28;20479;-69
2023/04/17 07:07:47;;;;;;;0.20;0.20;;;;;;;13.62;76.33;99322.53;4998432;28;20030;-69
2023/04/17 07:10:18;;;;;;;0.20;0.20;;;;;;;13.65;75.68;99320.94;4999232;28;20033;-69
2023/04/17 07:12:46;;;;;;;0.20;0.20;;;;;;;13.60;75.72;99341.72;5015654;28;20029;-69
2023/04/17 07:15:15;;;;;;;0.20;0.20;;;;;;;13.52;76.29;99334.53;4998360;28;20029;-68
2023/04/17 07:17:42;;;;;;;0.20;0.20;;;;;;;13.55;76.18;99333.75;4997747;28;20022;-69
2023/04/17 07:20:08;;;;;;;0.20;0.20;;;;;;;13.56;76.35;99337.31;4998261;28;20030;-69
2023/04/17 07:22:37;;;;;;;0.20;0.20;;;;;;;13.45;77.38;99340.16;4998158;28;20034;-68
2023/04/17 07:25:08;;;;;;;0.20;0.20;;;;;;;13.63;76.67;99338.13;4998112;28;20057;-68
2023/04/17 07:27:37;;;;;;;0.20;0.20;;;;;;;13.92;76.30;99338.00;4998437;28;20076;-69
2023/04/17 07:30:03;;;;;;;0.20;0.20;;;;;;;13.88;74.89;99335.22;4998389;28;20089;-69
2023/04/17 07:32:28;;;;;;;0.20;0.20;;;;;;;13.73;74.32;99330.88;4998645;28;20033;-69
2023/04/17 07:34:59;;;;;;;0.30;0.30;;;;;;;13.73;75.14;99341.25;4998709;28;20072;-69
2023/04/17 07:37:25;;;;;;;0.20;0.20;;;;;;;13.91;75.52;99344.81;4998260;28;20472;-69
2023/04/17 07:39:52;;;;;;;0.20;0.20;;;;;;;14.02;73.59;99339.97;4998181;28;20041;-68
2023/04/17 07:42:23;;;;;;;0.20;0.20;;;;;;;14.99;71.38;99339.38;4997751;28;20021;-68
2023/04/17 07:44:48;;;;;;;0.20;0.20;;;;;;;15.16;67.69;99316.78;4997801;28;20480;-69
2023/04/17 07:47:17;;;;;;;0.20;0.20;;;;;;;15.22;66.35;99352.75;4998274;28;20026;-69
2023/04/17 07:49:47;;;;;;;0.20;0.20;;;;;;;15.14;67.07;99355.63;4997667;28;20038;-68
2023/04/17 07:52:14;;;;;;;0.20;0.20;;;;;;;15.02;67.40;99367.34;4997614;28;20030;-68
2023/04/17 07:54:42;;;;;;;0.20;0.20;;;;;;;14.80;66.70;99357.50;4997857;28;20042;-68
2023/04/17 07:57:07;;;;;;;0.20;0.20;;;;;;;14.60;68.25;99374.84;4997516;28;20028;-68
2023/04/17 07:59:38;;;;;;;0.20;0.20;;;;;;;14.47;67.97;99370.91;4998103;28;20034;-68
2023/04/17 08:02:04;;;;;;;0.20;0.20;;;;;;;14.26;69.35;99371.00;4997394;28;20061;-68
2023/04/17 08:04:32;;;;;;;0.20;0.20;;;;;;;13.88;69.87;99374.38;4997931;28;20349;-68
2023/04/17 08:06:58;;;;;;;0.20;0.20;;;;;;;13.85;71.32;99375.19;4997651;28;20033;-68
2023/04/17 08:09:24;;;;;;;0.20;0.20;;;;;;;13.98;71.57;99366.34;4998068;28;20072;-69
2023/04/17 08:11:52;;;;;;;0.20;0.20;;;;;;;14.12;71.21;99369.09;4997796;28;20373;-69
2023/04/17 08:14:19;;;;;;;0.20;0.20;;;;;;;14.31;70.83;99371.38;4997221;28;20499;-69
2023/04/17 08:16:48;;;;;;;0.20;0.20;;;;;;;14.25;69.39;99372.22;4997180;28;20028;-69
2023/04/17 08:19:14;;;;;;;0.20;0.20;;;;;;;14.26;69.25;99371.00;4997103;28;20029;-69
2023/04/17 08:21:42;;;;;;;0.20;0.20;;;;;;;14.48;68.79;99369.72;4997106;28;20032;-69
2023/04/17 08:24:07;;;;;;;0.20;0.20;;;;;;;14.56;68.47;99385.28;4997294;28;20041;-69
2023/04/17 08:26:35;;;;;;;0.20;0.20;;;;;;;14.95;68.82;99389.81;4996952;28;20070;-69
2023/04/17 08:29:03;;;;;;;0.20;0.20;;;;;;;15.11;66.49;99390.06;4996042;28;20500;-69
2023/04/17 08:31:29;;;;;;;0.20;0.20;;;;;;;15.07;65.46;99394.91;4996814;28;20053;-69
2023/04/17 08:33:59;;;;;;;0.20;0.20;;;;;;;15.13;65.54;99393.28;4997473;28;20061;-68
2023/04/17 08:36:27;;;;;;;0.20;0.20;;;;;;;15.00;65.36;99394.97;4996852;28;20033;-68
2023/04/17 08:38:53;;;;;;;0.20;0.20;;;;;;;14.74;66.05;99398.34;4997044;28;20034;-68
2023/04/17 08:41:25;;;;;;;0.20;0.20;;;;;;;14.51;67.95;99396.09;4997064;28;20034;-68
2023/04/17 08:43:53;;;;;;;0.20;0.20;;;;;;;14.46;68.16;99402.91;4997297;28;20030;-68
2023/04/17 08:46:22;;;;;;;0.20;0.20;;;;;;;14.39;69.04;99409.34;4996675;28;20121;-68
2023/04/17 08:48:50;;;;;;;0.20;0.20;;;;;;;14.17;69.90;99407.84;4997600;28;20096;-69
2023/04/17 08:51:16;;;;;;;0.20;0.20;;;;;;;14.19;70.92;99399.03;4997402;28;20528;-68
2023/04/17 08:53:44;;;;;;;0.20;0.20;;;;;;;14.19;71.40;99404.63;4996568;28;20125;-68
2023/04/17 08:56:10;;;;;;;0.20;0.20;;;;;;;14.10;72.83;99408.63;4996835;28;20527;-67
2023/04/17 08:58:35;;;;;;;0.20;0.20;;;;;;;13.85;72.67;99419.13;4996542;28;20125;-70
2023/04/17 09:01:12;;;;;;;0.20;0.20;;;;;;;13.86;74.18;99413.13;4996771;28;20041;-68
2023/04/17 09:03:43;;;;;;;0.20;0.20;;;;;;;13.97;73.20;99421.50;4996748;28;20030;-68
2023/04/17 09:06:12;;;;;;;0.20;0.20;;;;;;;13.90;73.76;99421.50;4996680;28;20026;-68
2023/04/17 09:08:52;;;;;;;0.20;0.20;;;;;;;14.21;73.83;99416.19;4996903;28;20026;-68
2023/04/17 09:11:20;;;;;;;0.20;0.20;;;;;;;14.09;72.32;99420.25;4996327;28;20022;-68
2023/04/17 09:13:48;;;;;;;0.20;0.20;;;;;;;14.23;71.94;99416.59;4996304;28;20030;-68
2023/04/17 09:16:20;;;;;;;0.20;0.20;;;;;;;14.24;71.49;99419.00;4996555;28;20037;-68
2023/04/17 09:18:46;;;;;;;0.20;0.20;;;;;;;14.49;70.68;99404.09;4996270;28;20026;-68
2023/04/17 09:21:15;;;;;;;0.20;0.20;;;;;;;14.59;68.47;99422.84;4996841;28;20486;-69
2023/04/17 09:23:57;;;;;;;0.20;0.20;;;;;;;14.65;66.94;99438.03;5014121;28;20490;-68
2023/04/17 09:26:32;;;;;;;0.30;0.30;;;;;;;14.95;65.77;99440.22;4996166;28;20026;-68
2023/04/17 09:29:02;;;;;;;0.20;0.20;;;;;;;15.01;65.99;99432.19;5013813;28;20107;-71
2023/04/17 09:31:29;;;;;;;0.20;0.20;;;;;;;15.08;64.66;99434.94;4995911;28;20041;-68
2023/04/17 09:34:06;;;;;;;0.20;0.20;;;;;;;15.11;65.46;99437.72;4996654;28;20430;-68
2023/04/17 09:36:37;;;;;;;0.20;0.20;;;;;;;14.75;64.11;99434.34;4996732;28;20079;-71
2023/04/17 09:39:17;;;;;;;0.20;0.20;;;;;;;14.97;66.30;99439.81;4996718;28;20026;-70
2023/04/17 09:41:43;;;;;;;0.20;0.20;;;;;;;15.09;64.95;99434.53;5016329;28;20117;-68
2023/04/17 09:44:11;;;;;;;0.20;0.20;;;;;;;15.39;64.84;99435.88;5000716;28;20145;-69
2023/04/17 09:46:49;;;;;;;0.20;0.20;;;;;;;15.35;65.17;99435.13;5000513;28;20029;-68
2023/04/17 09:49:38;;;;;;;0.20;0.20;;;;;;;14.99;64.33;99437.41;5017572;28;20030;-68
2023/04/17 09:52:07;;;;;;;0.20;0.20;;;;;;;14.68;66.09;99431.59;4999799;28;20076;-68
2023/04/17 09:54:39;;;;;;;0.20;0.20;;;;;;;14.50;65.90;99431.69;5017148;28;20029;-69
2023/04/17 09:57:12;;;;;;;0.20;0.20;;;;;;;14.49;67.41;99421.72;4999918;28;20053;-69
2023/04/17 09:59:39;;;;;;;0.20;0.20;;;;;;;14.43;67.15;99420.50;5017929;28;20034;-70
2023/04/17 10:02:11;;;;;;;0.20;0.20;;;;;;;14.50;67.16;99430.91;4999999;28;20029;-70
2023/04/17 10:04:42;;;;;;;0.20;0.20;;;;;;;14.62;67.24;99422.81;5000124;28;20026;-70
2023/04/17 10:07:07;;;;;;;0.20;0.20;;;;;;;14.63;67.75;99426.41;4999841;28;20099;-69
2023/04/17 10:09:33;;;;;;;0.20;0.20;;;;;;;14.66;66.21;99420.81;4999513;28;20037;-69
2023/04/17 10:12:03;;;;;;;0.20;0.20;;;;;;;14.62;64.64;99422.81;4999677;28;20104;-69
2023/04/17 10:14:39;;;;;;;0.20;0.20;;;;;;;14.68;66.14;99426.78;4999732;28;20408;-69
2023/04/17 10:17:31;;;;;;;0.20;0.20;;;;;;;14.75;66.30;99420.34;4999693;28;20468;-69
2023/04/17 10:20:16;;;;;;;0.20;0.20;;;;;;;14.78;65.32;99429.94;4999377;28;20060;-68
2023/04/17 10:22:53;;;;;;;0.20;0.20;;;;;;;14.78;65.33;99436.34;4985614;28;20045;-68
2023/04/17 10:25:21;;;;;;;0.20;0.20;;;;;;;14.77;66.37;99431.94;4999979;28;20038;-68
2023/04/17 10:27:48;;;;;;;0.20;0.20;;;;;;;14.73;65.55;99433.16;5016911;28;20108;-68
2023/04/17 10:30:14;;;;;;;0.20;0.20;;;;;;;14.74;64.62;99429.16;5018215;28;20080;-68
2023/04/17 10:33:05;;;;;;;0.20;0.20;;;;;;;14.73;64.58;99419.97;4999891;28;20034;-68
2023/04/17 10:35:39;;;;;;;0.20;0.20;;;;;;;14.79;64.31;99425.94;4999197;28;20477;-68
2023/04/17 10:38:06;;;;;;;0.20;0.20;;;;;;;14.66;65.69;99426.41;4999445;28;20029;-68
2023/04/17 10:40:36;;;;;;;0.20;0.20;;;;;;;14.77;64.83;99422.75;4999231;28;20034;-68
2023/04/17 10:43:21;;;;;;;0.20;0.20;;;;;;;14.83;65.14;99415.50;4999039;28;20053;-68
2023/04/17 10:46:12;;;;;;;0.30;0.30;;;;;;;15.04;64.21;99426.56;4998872;28;20033;-68
2023/04/17 10:48:48;;;;;;;0.20;0.20;;;;;;;14.86;64.32;99426.69;4999110;28;20053;-68
2023/04/17 10:51:26;;;;;;;0.20;0.20;;;;;;;14.90;64.92;99421.03;5016667;28;20051;-68
2023/04/17 10:53:56;;;;;;;0.20;0.20;;;;;;;15.03;64.82;99419.38;4998206;28;20030;-68
2023/04/17 10:56:29;;;;;;;0.20;0.20;;;;;;;14.96;63.07;99365.38;4998465;28;20041;-68
2023/04/17 10:58:57;;;;;;;0.20;0.20;;;;;;;15.19;62.87;99411.25;4998934;28;20042;-68
2023/04/17 11:01:46;;;;;;;0.20;0.20;;;;;;;15.28;62.91;99412.75;4998569;28;20484;-68
2023/04/17 11:04:19;;;;;;;0.20;0.20;;;;;;;15.22;61.59;99414.41;4986378;28;20034;-68
2023/04/17 11:06:47;;;;;;;0.20;0.20;;;;;;;15.32;62.61;99405.13;4998527;28;20034;-68
2023/04/17 11:09:19;;;;;;;0.20;0.20;;;;;;;15.11;63.13;99404.09;4998870;28;20036;-68
2023/04/17 11:11:47;;;;;;;0.20;0.20;;;;;;;15.18;62.87;99415.25;5018212;28;20038;-69
2023/04/17 11:14:15;;;;;;;0.20;0.20;;;;;;;15.22;63.32;99406.00;5000034;28;20029;-69
2023/04/17 11:16:45;;;;;;;0.20;0.20;;;;;;;15.22;62.13;99404.00;5016236;28;20056;-68
2023/04/17 11:19:16;;;;;;;0.20;0.20;;;;;;;15.32;63.08;99411.50;4998299;28;20469;-68
2023/04/17 11:21:45;;;;;;;0.20;0.20;;;;;;;15.36;61.63;99403.09;4998545;28;20362;-68
2023/04/17 11:24:21;;;;;;;0.20;0.20;;;;;;;15.25;60.99;99402.38;5016037;28;20034;-68
2023/04/17 11:26:53;;;;;;;0.20;0.20;;;;;;;15.48;61.10;99410.97;4998433;28;20156;-69
2023/04/17 11:29:20;;;;;;;0.20;0.20;;;;;;;15.20;60.41;99410.03;4994462;28;20054;-69
2023/04/17 11:31:48;;;;;;;0.20;0.20;;;;;;;14.91;61.51;99411.44;4994801;28;20030;-69
2023/04/17 11:34:17;;;;;;;0.20;0.20;;;;;;;14.97;61.87;99414.59;4995326;28;20034;-69
2023/04/17 11:36:52;;;;;;;0.20;0.20;;;;;;;14.96;63.15;99416.59;4994821;28;20121;-69
2023/04/17 11:39:22;;;;;;;0.20;0.20;;;;;;;15.04;63.96;99420.16;4994665;28;20042;-69